Time;durP1;ratioP1;P1;durP2;ratioP2;P2;SDS_P1;SDS_P2;PMS_P1;PMS_P2;Temp;Humidity;BMP_temperature;BMP_pressure;BME280_temperature;BME280_humidity;BME280_pressure;Samples;Min_cycle;Max_cycle;Signal;HPM_P1;HPM_P2
2023/10/14 00:01:24;;;;;;;;;;;;;;;20.56;62.16;99974.13;5041262;28;19937;-46
2023/10/14 00:03:50;;;;;;;;;;;;;;;20.55;62.32;99985.97;5044463;28;19909;-50
2023/10/14 00:06:18;;;;;;;;;;;;;;;20.55;62.14;99985.97;5037527;28;19909;-49
2023/10/14 00:08:57;;;;;;;;;;;;;;;20.54;62.51;99987.03;5041408;28;19917;-45
2023/10/14 00:11:23;;;;;;;;;;;;;;;20.54;62.37;100012.16;5043074;28;19917;-47
2023/10/14 00:13:49;;;;;;;;;;;;;;;20.53;62.14;100009.66;5037203;28;19931;-45
2023/10/14 00:18:55;;;;;;;;;;;;;;;20.53;62.61;100017.75;5048054;28;20319;-46
2023/10/14 00:21:20;;;;;;;;;;;;;;;20.51;62.12;100015.25;5040152;28;19936;-48
2023/10/14 00:23:46;;;;;;;;;;;;;;;20.52;62.21;100007.97;5073946;28;19921;-45
2023/10/14 00:26:14;;;;;;;;;;;;;;;20.51;62.26;100019.81;5043129;28;19913;-47
2023/10/14 00:28:41;;;;;;;;;;;;;;;20.50;62.13;100018.16;5042053;28;19916;-46
2023/10/14 00:31:06;;;;;;;;;;;;;;;20.50;62.29;100035.19;5044211;28;19973;-49
2023/10/14 00:33:35;;;;;;;;;;;;;;;20.50;62.21;100050.56;5038666;28;19909;-46
2023/10/14 00:36:00;;;;;;;;;;;;;;;20.49;62.17;100057.84;5041952;28;20292;-48
2023/10/14 00:38:27;;;;;;;;;;;;;;;20.49;62.34;100073.19;5043997;28;19921;-48
2023/10/14 00:40:52;;;;;;;;;;;;;;;20.48;62.35;100077.78;5038743;28;19917;-47
2023/10/14 00:43:17;;;;;;;;;;;;;;;20.48;62.37;100083.19;5043496;28;20038;-47
2023/10/14 00:45:45;;;;;;;;;;;;;;;20.47;62.48;100093.13;5041931;28;19956;-49
2023/10/14 00:48:13;;;;;;;;;;;;;;;20.46;62.04;100091.41;5041176;28;19995;-50
2023/10/14 00:50:41;;;;;;;;;;;;;;;20.45;62.30;100097.88;5038957;28;19912;-45
2023/10/14 00:53:06;;;;;;;;;;;;;;;20.45;62.08;100097.88;5043087;28;19912;-46
2023/10/14 00:58:12;;;;;;;;;;;;;;;20.45;62.40;100113.22;5045991;28;19916;-48
2023/10/14 01:00:56;;;;;;;;;;;;;;;20.44;62.15;100107.00;5037606;28;19921;-48
2023/10/14 01:03:22;;;;;;;;;;;;;;;20.44;62.32;100108.88;5043882;28;19913;-48
2023/10/14 01:05:47;;;;;;;;;;;;;;;20.43;62.14;100099.94;5037962;28;19916;-48
2023/10/14 01:08:12;;;;;;;;;;;;;;;20.43;62.32;100094.53;5042592;28;19923;-47
2023/10/14 01:10:39;;;;;;;;;;;;;;;20.42;62.00;100095.56;5039049;28;19935;-47
2023/10/14 01:13:09;;;;;;;;;;;;;;;20.42;62.26;100109.06;5037080;28;19919;-48
2023/10/14 01:15:42;;;;;;;;;;;;;;;20.41;62.20;100120.88;5040912;28;19996;-47
2023/10/14 01:18:07;;;;;;;;;;;;;;;20.42;61.96;100124.41;5041347;28;19909;-48
2023/10/14 01:20:38;;;;;;;;;;;;;;;20.40;61.99;100138.13;5037520;28;19921;-45
2023/10/14 01:23:17;;;;;;;;;;;;;;;20.40;62.18;100154.31;5037355;28;19913;-48
2023/10/14 01:25:50;;;;;;;;;;;;;;;20.40;62.16;100164.28;5037452;28;19909;-47
2023/10/14 01:28:20;;;;;;;;;;;;;;;20.39;62.18;100174.25;5038907;28;19913;-47
2023/10/14 01:31:30;;;;;;;;;;;;;;;20.39;61.90;100184.19;5041031;28;19969;-46
2023/10/14 01:33:52;;;;;;;;;;;;;;;20.37;61.92;100181.72;5032941;28;19913;-47
2023/10/14 01:36:18;;;;;;;;;;;;;;;20.38;61.75;100185.25;5034093;28;19915;-47
2023/10/14 01:38:51;;;;;;;;;;;;;;;20.38;61.85;100196.03;5039009;28;19920;-46
2023/10/14 01:41:16;;;;;;;;;;;;;;;20.37;62.11;100188.97;5034033;28;19913;-49
2023/10/14 01:43:41;;;;;;;;;;;;;;;20.36;62.00;100201.66;5040353;28;20027;-50
2023/10/14 01:46:10;;;;;;;;;;;;;;;20.36;62.12;100206.22;5037658;28;19909;-47
2023/10/14 01:48:38;;;;;;;;;;;;;;;20.35;62.03;100213.47;5028645;28;19914;-47
2023/10/14 01:51:04;;;;;;;;;;;;;;;20.34;61.98;100210.97;5036851;28;19909;-46
2023/10/14 01:53:32;;;;;;;;;;;;;;;20.34;61.83;100228.00;5038827;28;19931;-48
2023/10/14 01:55:59;;;;;;;;;;;;;;;20.34;61.93;100229.84;5039059;28;19925;-49
2023/10/14 01:58:32;;;;;;;;;;;;;;;20.33;61.69;100228.19;5034600;28;20011;-47
2023/10/14 02:01:07;;;;;;;;;;;;;;;20.33;61.78;100239.00;5039629;28;19935;-46
2023/10/14 02:03:41;;;;;;;;;;;;;;;20.32;61.69;100242.72;5039421;28;19910;-47
2023/10/14 02:06:12;;;;;;;;;;;;;;;20.32;61.91;100248.13;5035520;28;20048;-47
2023/10/14 02:08:38;;;;;;;;;;;;;;;20.31;61.72;100251.88;5043255;28;19916;-46
2023/10/14 02:11:04;;;;;;;;;;;;;;;20.30;61.73;100259.09;5037622;28;19920;-45
2023/10/14 02:13:29;;;;;;;;;;;;;;;20.29;61.73;100268.25;5039603;28;19920;-46
2023/10/14 02:15:59;;;;;;;;;;;;;;;20.30;61.86;100263.66;5040426;28;19910;-46
2023/10/14 02:18:24;;;;;;;;;;;;;;;20.29;61.84;100265.53;5036425;28;19996;-46
2023/10/14 02:21:05;;;;;;;;;;;;;;;20.29;61.84;100280.91;5038969;28;19948;-47
2023/10/14 02:23:31;;;;;;;;;;;;;;;20.30;61.87;100285.28;5038135;28;19908;-46
2023/10/14 02:25:56;;;;;;;;;;;;;;;20.28;61.52;100290.03;5036105;28;20008;-47
2023/10/14 02:28:22;;;;;;;;;;;;;;;20.27;61.86;100289.22;5042392;28;19909;-48
2023/10/14 02:30:51;;;;;;;;;;;;;;;20.26;61.68;100301.00;5036630;28;19916;-49
2023/10/14 02:33:16;;;;;;;;;;;;;;;20.26;61.84;100303.72;5039365;28;19913;-47
2023/10/14 02:35:41;;;;;;;;;;;;;;;20.26;61.50;100321.78;5041052;28;19909;-47
2023/10/14 02:38:08;;;;;;;;;;;;;;;20.25;61.76;100320.09;5036191;28;19920;-46
2023/10/14 02:40:36;;;;;;;;;;;;;;;20.24;61.79;100324.69;5038847;28;19917;-49
2023/10/14 02:43:02;;;;;;;;;;;;;;;20.23;61.54;100334.63;5039759;28;19936;-47
2023/10/14 02:45:33;;;;;;;;;;;;;;;20.23;61.40;100348.13;5038134;28;19908;-46
2023/10/14 02:48:01;;;;;;;;;;;;;;;20.22;61.69;100357.28;5048796;28;19913;-46
2023/10/14 02:50:26;;;;;;;;;;;;;;;20.22;61.41;100372.63;5039514;28;19921;-47
2023/10/14 02:53:00;;;;;;;;;;;;;;;20.21;61.66;100382.56;5040160;28;19924;-46
2023/10/14 02:55:26;;;;;;;;;;;;;;;20.21;61.41;100387.13;5041681;28;19909;-49
2023/10/14 02:57:51;;;;;;;;;;;;;;;20.20;61.38;100394.41;5035764;28;19916;-46
2023/10/14 03:00:24;;;;;;;;;;;;;;;20.19;61.30;100395.44;5040927;28;19913;-46
2023/10/14 03:02:54;;;;;;;;;;;;;;;20.18;61.48;100393.75;5037247;28;19909;-49
2023/10/14 03:05:33;;;;;;;;;;;;;;;20.18;61.23;100398.34;5043366;28;19920;-47
2023/10/14 03:08:11;;;;;;;;;;;;;;;20.17;61.63;100410.13;5040090;28;19909;-45
2023/10/14 03:10:40;;;;;;;;;;;;;;;20.17;61.25;100423.63;5037359;28;19912;-45
2023/10/14 03:13:06;;;;;;;;;;;;;;;20.16;61.32;100413.88;5038043;28;19920;-47
2023/10/14 03:15:32;;;;;;;;;;;;;;;20.16;61.49;100430.88;5038076;28;20273;-50
2023/10/14 03:17:58;;;;;;;;;;;;;;;20.15;61.24;100437.31;5037425;28;19909;-45
2023/10/14 03:22:55;;;;;;;;;;;;;;;20.13;61.27;100447.44;5037128;28;19955;-47
2023/10/14 03:25:23;;;;;;;;;;;;;;;20.13;61.19;100449.31;5037741;28;19909;-46
2023/10/14 03:27:58;;;;;;;;;;;;;;;20.12;61.34;100451.19;5047978;28;19992;-47
2023/10/14 03:30:23;;;;;;;;;;;;;;;20.12;61.46;100458.44;5044869;28;19952;-48
2023/10/14 03:32:48;;;;;;;;;;;;;;;20.10;61.42;100464.03;5047017;28;19909;-49
2023/10/14 03:35:20;;;;;;;;;;;;;;;20.11;61.29;100470.28;5045058;28;19948;-47
2023/10/14 03:37:52;;;;;;;;;;;;;;;20.10;61.43;100479.41;5038216;28;19913;-49
2023/10/14 03:43:10;;;;;;;;;;;;;;;20.08;60.96;100498.47;5043584;28;19924;-46
2023/10/14 03:45:46;;;;;;;;;;;;;;;20.07;61.00;100495.97;5036470;28;19985;-50
2023/10/14 03:48:13;;;;;;;;;;;;;;;20.07;60.99;100506.75;5052286;28;19908;-45
2023/10/14 03:50:38;;;;;;;;;;;;;;;20.06;61.06;100514.00;5041627;28;20364;-47
2023/10/14 03:53:05;;;;;;;;;;;;;;;20.05;61.12;100516.88;5036188;28;19909;-47
2023/10/14 03:55:30;;;;;;;;;;;;;;;20.05;61.19;100520.44;5039050;28;19932;-51
2023/10/14 03:58:03;;;;;;;;;;;;;;;20.04;60.96;100524.16;5038543;28;19917;-46
2023/10/14 04:00:38;;;;;;;;;;;;;;;20.04;60.89;100528.72;5042004;28;19914;-46
2023/10/14 04:03:06;;;;;;;;;;;;;;;20.03;61.25;100529.75;5044049;28;19909;-46
2023/10/14 04:05:31;;;;;;;;;;;;;;;20.03;60.83;100535.13;5042344;28;19912;-46
2023/10/14 04:07:57;;;;;;;;;;;;;;;20.01;60.90;100539.88;5042282;28;19949;-47
2023/10/14 04:10:23;;;;;;;;;;;;;;;20.00;60.89;100543.59;5039307;28;19923;-47
2023/10/14 04:12:55;;;;;;;;;;;;;;;20.00;60.89;100546.28;5046375;28;19917;-49
2023/10/14 04:15:34;;;;;;;;;;;;;;;19.99;61.11;100550.84;5039611;28;19921;-49
2023/10/14 04:18:00;;;;;;;;;;;;;;;20.00;61.18;100559.78;5053670;28;19912;-48
2023/10/14 04:20:33;;;;;;;;;;;;;;;19.97;61.13;100556.44;5042868;28;19913;-50
2023/10/14 04:22:58;;;;;;;;;;;;;;;19.97;61.30;100564.53;5044653;28;19910;-47
2023/10/14 04:25:39;;;;;;;;;;;;;;;19.96;61.35;100570.97;5046909;28;19916;-45
2023/10/14 04:30:42;;;;;;;;;;;;;;;19.96;61.38;100584.47;5043324;28;19919;-46
2023/10/14 04:33:25;;;;;;;;;;;;;;;19.95;61.15;100588.16;5047431;28;19957;-47
2023/10/14 04:36:36;;;;;;;;;;;;;;;19.94;61.35;100589.19;5039714;28;19912;-45
2023/10/14 04:38:42;;;;;;;;;;;;;;;19.94;61.05;100599.97;5044972;28;19947;-49
2023/10/14 04:41:14;;;;;;;;;;;;;;;19.93;61.21;100595.63;5040020;28;19913;-47
2023/10/14 04:46:15;;;;;;;;;;;;;;;19.92;61.08;100607.44;5044036;28;19966;-48
2023/10/14 04:48:49;;;;;;;;;;;;;;;19.92;61.27;100601.16;5039095;28;19935;-50
2023/10/14 04:51:19;;;;;;;;;;;;;;;19.92;61.34;100611.97;5042624;28;19909;-49
2023/10/14 04:53:45;;;;;;;;;;;;;;;19.91;61.25;100621.09;5044982;28;19915;-48
2023/10/14 04:56:10;;;;;;;;;;;;;;;19.91;61.43;100627.31;5039127;28;19909;-50
2023/10/14 04:58:40;;;;;;;;;;;;;;;19.90;61.35;100628.34;5045122;28;20443;-51
2023/10/14 05:01:09;;;;;;;;;;;;;;;19.90;61.33;100635.59;5040771;28;20376;-48
2023/10/14 05:03:34;;;;;;;;;;;;;;;19.90;61.71;100643.69;5042047;28;19917;-50
2023/10/14 05:08:55;;;;;;;;;;;;;;;19.89;61.51;100644.72;5044400;28;19917;-51
2023/10/14 05:11:18;;;;;;;;;;;;;;;19.88;61.46;100649.28;5039360;28;20300;-48
2023/10/14 05:13:44;;;;;;;;;;;;;;;19.88;61.86;100662.78;5039942;28;19913;-48
2023/10/14 05:16:16;;;;;;;;;;;;;;;19.88;61.68;100670.00;5038740;28;19916;-48
2023/10/14 05:18:59;;;;;;;;;;;;;;;19.88;61.57;100672.69;5042356;28;19951;-48
2023/10/14 05:21:36;;;;;;;;;;;;;;;19.87;61.84;100679.97;5041605;28;19913;-48
2023/10/14 05:24:11;;;;;;;;;;;;;;;19.86;61.81;100683.69;5042811;28;19916;-48
2023/10/14 05:26:43;;;;;;;;;;;;;;;19.86;61.81;100686.38;5038324;28;20362;-49
2023/10/14 05:29:16;;;;;;;;;;;;;;;19.86;61.52;100688.25;5038166;28;19917;-50
2023/10/14 05:31:42;;;;;;;;;;;;;;;19.85;61.65;100692.81;5040935;28;19909;-52
2023/10/14 05:34:07;;;;;;;;;;;;;;;19.85;61.50;100700.91;5035022;28;19913;-46
2023/10/14 05:36:34;;;;;;;;;;;;;;;19.84;61.65;100707.31;5040500;28;19912;-48
2023/10/14 05:39:02;;;;;;;;;;;;;;;19.84;61.76;100707.31;5040554;28;19979;-51
2023/10/14 05:41:27;;;;;;;;;;;;;;;19.83;61.50;100715.56;5036849;28;19948;-51
2023/10/14 05:43:53;;;;;;;;;;;;;;;19.82;61.45;100722.84;5037507;28;20281;-50
2023/10/14 05:46:20;;;;;;;;;;;;;;;19.82;61.79;100725.53;5043319;28;20399;-46
2023/10/14 05:48:45;;;;;;;;;;;;;;;19.82;61.46;100730.09;5038942;28;19916;-51
2023/10/14 05:51:10;;;;;;;;;;;;;;;19.80;61.76;100735.69;5037198;28;19939;-50
2023/10/14 05:53:36;;;;;;;;;;;;;;;19.80;61.66;100743.78;5037860;28;19920;-46
2023/10/14 05:56:11;;;;;;;;;;;;;;;19.80;61.71;100742.94;5032835;28;19921;-46
2023/10/14 05:58:37;;;;;;;;;;;;;;;19.80;61.91;100753.72;5042064;28;19916;-46
2023/10/14 06:01:07;;;;;;;;;;;;;;;19.81;61.89;100760.78;5035380;28;19913;-49
2023/10/14 06:03:32;;;;;;;;;;;;;;;19.79;61.79;100763.66;5036584;28;19916;-48
2023/10/14 06:06:00;;;;;;;;;;;;;;;19.80;61.65;100772.63;5038333;28;19913;-47
2023/10/14 06:08:25;;;;;;;;;;;;;;;19.79;61.93;100770.91;5035346;28;19909;-47
2023/10/14 06:10:50;;;;;;;;;;;;;;;19.78;61.60;100780.88;5034107;28;20383;-47
2023/10/14 06:13:16;;;;;;;;;;;;;;;19.78;61.79;100778.16;5035246;28;20296;-49
2023/10/14 06:15:42;;;;;;;;;;;;;;;19.78;61.47;100788.97;5029069;28;19916;-46
2023/10/14 06:18:13;;;;;;;;;;;;;;;19.78;61.48;100790.81;5040092;28;19955;-51
2023/10/14 06:20:39;;;;;;;;;;;;;;;19.77;61.35;100794.53;5040702;28;19921;-47
2023/10/14 06:23:07;;;;;;;;;;;;;;;19.77;61.47;100806.16;5042387;28;19940;-46
2023/10/14 06:25:34;;;;;;;;;;;;;;;19.76;61.57;100809.06;5034395;28;19916;-50
2023/10/14 06:27:59;;;;;;;;;;;;;;;19.75;61.50;100818.97;5041271;28;20375;-47
2023/10/14 06:30:25;;;;;;;;;;;;;;;19.76;61.17;100826.06;5038197;28;19913;-46
2023/10/14 06:33:04;;;;;;;;;;;;;;;19.75;61.43;100834.31;5037753;28;19909;-51
2023/10/14 06:35:37;;;;;;;;;;;;;;;19.74;61.24;100830.78;5041324;28;19920;-51
2023/10/14 06:38:09;;;;;;;;;;;;;;;19.73;61.24;100831.81;5036963;28;19911;-48
2023/10/14 06:40:37;;;;;;;;;;;;;;;19.72;61.29;100836.38;5072095;28;19923;-49
2023/10/14 06:43:06;;;;;;;;;;;;;;;19.73;60.92;100845.31;5040209;28;19972;-48
2023/10/14 06:45:32;;;;;;;;;;;;;;;19.72;61.19;100846.31;5033272;28;19916;-48
2023/10/14 06:47:57;;;;;;;;;;;;;;;19.72;61.10;100854.41;5040322;28;19913;-54
2023/10/14 06:50:26;;;;;;;;;;;;;;;19.71;61.26;100863.53;5041262;28;19930;-49
2023/10/14 06:52:58;;;;;;;;;;;;;;;19.71;61.13;100874.31;5037367;28;20447;-48
2023/10/14 06:55:26;;;;;;;;;;;;;;;19.71;60.79;100880.56;5039971;28;19919;-49
2023/10/14 06:57:53;;;;;;;;;;;;;;;19.71;60.99;100882.41;5039006;28;19948;-50
2023/10/14 07:00:25;;;;;;;;;;;;;;;19.68;61.02;100880.91;5035610;28;20579;-48
2023/10/14 07:02:51;;;;;;;;;;;;;;;19.69;60.74;100887.13;5041446;28;19917;-51
2023/10/14 07:05:19;;;;;;;;;;;;;;;19.68;60.74;100885.44;5037960;28;20349;-51
2023/10/14 07:07:44;;;;;;;;;;;;;;;19.68;60.86;100891.69;5037906;28;19956;-50
2023/10/14 07:10:10;;;;;;;;;;;;;;;19.68;60.87;100888.16;5038843;28;19913;-46
2023/10/14 07:12:37;;;;;;;;;;;;;;;19.68;60.55;100898.94;5034997;28;19962;-48
2023/10/14 07:15:05;;;;;;;;;;;;;;;19.66;60.77;100906.34;5040955;28;19913;-50
2023/10/14 07:17:30;;;;;;;;;;;;;;;19.66;60.82;100912.59;5040789;28;19932;-50
2023/10/14 07:19:56;;;;;;;;;;;;;;;19.65;60.72;100913.59;5035954;28;20320;-49
2023/10/14 07:22:21;;;;;;;;;;;;;;;19.65;60.62;100915.47;5039971;28;19920;-51
2023/10/14 07:24:47;;;;;;;;;;;;;;;19.65;60.66;100915.47;5038520;28;20434;-47
2023/10/14 07:27:13;;;;;;;;;;;;;;;19.64;60.73;100928.13;5037570;28;19932;-49
2023/10/14 07:29:39;;;;;;;;;;;;;;;19.64;60.66;100929.97;5040791;28;20291;-48
2023/10/14 07:32:05;;;;;;;;;;;;;;;19.63;60.65;100934.53;5035740;28;19913;-48
2023/10/14 07:34:30;;;;;;;;;;;;;;;19.63;60.63;100934.53;5035481;28;19909;-50
2023/10/14 07:36:55;;;;;;;;;;;;;;;19.64;60.76;100938.06;5038730;28;20016;-49
2023/10/14 07:39:29;;;;;;;;;;;;;;;19.63;60.40;100939.94;5034345;28;20451;-52
2023/10/14 07:41:55;;;;;;;;;;;;;;;19.63;60.34;100953.41;5041357;28;19951;-50
2023/10/14 07:44:22;;;;;;;;;;;;;;;19.64;60.46;100959.63;5035570;28;20298;-51
2023/10/14 07:46:48;;;;;;;;;;;;;;;19.63;60.59;100958.81;5034960;28;19973;-49
2023/10/14 07:49:16;;;;;;;;;;;;;;;19.63;60.29;100960.66;5036462;28;19909;-50
2023/10/14 07:51:42;;;;;;;;;;;;;;;19.62;60.52;100969.75;5036522;28;19921;-48
2023/10/14 07:54:08;;;;;;;;;;;;;;;19.62;60.44;100967.03;5041916;28;20515;-50
2023/10/14 07:56:33;;;;;;;;;;;;;;;19.62;60.33;100972.44;5037108;28;19917;-51
2023/10/14 07:58:58;;;;;;;;;;;;;;;19.61;60.80;100974.31;5031110;28;19913;-53
2023/10/14 08:01:23;;;;;;;;;;;;;;;19.62;60.72;100975.13;5032673;28;19920;-51
2023/10/14 08:03:50;;;;;;;;;;;;;;;19.61;60.45;100976.16;5035707;28;19976;-49
2023/10/14 08:06:17;;;;;;;;;;;;;;;19.62;60.38;100978.69;5032247;28;19916;-49
2023/10/14 08:08:47;;;;;;;;;;;;;;;19.62;60.39;100977.84;5040139;28;19980;-48
2023/10/14 08:11:12;;;;;;;;;;;;;;;19.61;60.52;100989.66;5031313;28;20295;-50
2023/10/14 08:13:38;;;;;;;;;;;;;;;19.61;60.50;100992.34;5040502;28;19973;-51
2023/10/14 08:16:07;;;;;;;;;;;;;;;19.61;60.36;100989.66;5042350;28;20908;-50
2023/10/14 08:18:33;;;;;;;;;;;;;;;19.61;60.54;100998.56;5038142;28;20004;-47
2023/10/14 08:20:59;;;;;;;;;;;;;;;19.61;60.25;101001.28;5038684;28;19924;-50
2023/10/14 08:23:25;;;;;;;;;;;;;;;19.60;60.40;101010.34;5040743;28;19920;-53
2023/10/14 08:25:59;;;;;;;;;;;;;;;19.61;60.20;101019.31;5034010;28;19913;-50
2023/10/14 08:28:27;;;;;;;;;;;;;;;19.60;60.48;101017.59;5040978;28;19996;-52
2023/10/14 08:30:52;;;;;;;;;;;;;;;19.60;60.30;101021.16;5042069;28;19936;-51
2023/10/14 08:33:21;;;;;;;;;;;;;;;19.60;60.48;101023.84;5044161;28;19909;-50
2023/10/14 08:35:48;;;;;;;;;;;;;;;19.60;60.43;101021.16;5041575;28;20372;-47
2023/10/14 08:38:14;;;;;;;;;;;;;;;19.59;60.08;101022.16;5041494;28;19916;-50
2023/10/14 08:40:40;;;;;;;;;;;;;;;19.61;60.15;101032.81;5044555;28;19913;-51
2023/10/14 08:43:06;;;;;;;;;;;;;;;19.60;60.38;101033.78;5037318;28;19913;-49
2023/10/14 08:45:35;;;;;;;;;;;;;;;19.60;60.22;101036.50;5072584;28;20311;-49
2023/10/14 08:48:00;;;;;;;;;;;;;;;19.59;60.15;101041.03;5041737;28;19968;-49
2023/10/14 08:50:25;;;;;;;;;;;;;;;19.59;60.25;101041.03;5039344;28;19916;-49
2023/10/14 08:52:53;;;;;;;;;;;;;;;19.60;60.04;101044.56;5043852;28;19913;-52
2023/10/14 08:55:19;;;;;;;;;;;;;;;19.59;60.34;101053.69;5041654;28;19917;-50
2023/10/14 08:57:44;;;;;;;;;;;;;;;19.60;60.29;101060.75;5038852;28;19951;-47
2023/10/14 09:00:12;;;;;;;;;;;;;;;19.59;60.27;101062.63;5043558;28;19917;-52
2023/10/14 09:02:37;;;;;;;;;;;;;;;19.60;60.33;101066.16;5038578;28;19913;-50
2023/10/14 09:05:03;;;;;;;;;;;;;;;19.60;60.07;101069.69;5040271;28;19990;-48
2023/10/14 09:07:31;;;;;;;;;;;;;;;19.61;60.12;101067.88;5043799;28;19909;-49
2023/10/14 09:09:56;;;;;;;;;;;;;;;19.61;60.23;101070.56;5039411;28;20427;-51
2023/10/14 09:12:22;;;;;;;;;;;;;;;19.61;60.40;101078.66;5042327;28;19920;-52
2023/10/14 09:14:50;;;;;;;;;;;;;;;19.61;60.15;101070.56;5041916;28;19910;-47
2023/10/14 09:17:16;;;;;;;;;;;;;;;19.62;60.00;101080.34;5039897;28;19945;-49
2023/10/14 09:19:47;;;;;;;;;;;;;;;19.62;60.09;101074.94;5043381;28;19920;-50
2023/10/14 09:22:22;;;;;;;;;;;;;;;19.62;60.26;101083.88;5042955;28;19913;-48
2023/10/14 09:24:48;;;;;;;;;;;;;;;19.63;60.06;101082.03;5041225;28;19997;-49
2023/10/14 09:27:14;;;;;;;;;;;;;;;19.62;60.26;101086.56;5041037;28;19936;-49
2023/10/14 09:29:39;;;;;;;;;;;;;;;19.63;60.24;101096.38;5038545;28;20368;-53
2023/10/14 09:32:05;;;;;;;;;;;;;;;19.64;60.26;101094.50;5042195;28;19932;-48
2023/10/14 09:34:30;;;;;;;;;;;;;;;19.63;60.07;101092.84;5039960;28;20284;-51
2023/10/14 09:36:55;;;;;;;;;;;;;;;19.65;59.99;101093.50;5039028;28;20348;-52
2023/10/14 09:39:24;;;;;;;;;;;;;;;19.65;59.82;101097.03;5040079;28;19924;-50
2023/10/14 09:41:50;;;;;;;;;;;;;;;19.66;59.84;101098.69;5071050;28;19964;-50
2023/10/14 09:44:15;;;;;;;;;;;;;;;19.67;59.90;101103.13;5019411;28;19913;-52
2023/10/14 09:46:41;;;;;;;;;;;;;;;19.70;59.83;101108.16;5029514;28;19909;-49
2023/10/14 09:49:10;;;;;;;;;;;;;;;19.71;59.98;101103.63;5037109;28;20391;-50
2023/10/14 09:51:35;;;;;;;;;;;;;;;19.72;59.87;101108.84;5056887;28;19913;-48
2023/10/14 09:54:00;;;;;;;;;;;;;;;19.74;59.98;101105.97;5037735;28;19919;-49
2023/10/14 09:56:25;;;;;;;;;;;;;;;19.77;59.61;101112.88;5019695;28;19909;-48
2023/10/14 09:58:52;;;;;;;;;;;;;;;19.79;59.67;101111.69;5038989;28;19924;-47
2023/10/14 10:01:19;;;;;;;;;;;;;;;19.82;59.64;101129.41;5068034;28;19992;-51
2023/10/14 10:03:48;;;;;;;;;;;;;;;19.84;59.88;101128.22;5035544;28;19920;-50
2023/10/14 10:06:35;;;;;;;;;;;;;;;19.88;59.47;101136.81;5036353;28;19944;-48
2023/10/14 10:09:20;;;;;;;;;;;;;;;19.90;59.47;101138.34;5038710;28;20364;-50
2023/10/14 10:11:48;;;;;;;;;;;;;;;19.93;59.59;101140.69;5033373;28;19928;-48
2023/10/14 10:14:16;;;;;;;;;;;;;;;19.97;59.20;101143.91;5038000;28;19955;-49
2023/10/14 10:16:41;;;;;;;;;;;;;;;20.00;58.99;101150.81;5038852;28;20367;-47
2023/10/14 10:19:08;;;;;;;;;;;;;;;20.02;59.07;101140.69;5036515;28;19927;-48
2023/10/14 10:21:35;;;;;;;;;;;;;;;20.06;58.89;101142.03;5033561;28;19913;-47
2023/10/14 10:24:09;;;;;;;;;;;;;;;20.09;58.79;101136.28;5030884;28;19913;-47
2023/10/14 10:26:53;;;;;;;;;;;;;;;20.12;58.72;101138.66;5031918;28;19913;-51
2023/10/14 10:29:21;;;;;;;;;;;;;;;20.16;58.44;101142.69;5033787;28;19920;-52
2023/10/14 10:32:04;;;;;;;;;;;;;;;20.19;58.45;101142.34;5035177;28;19952;-48
2023/10/14 10:34:30;;;;;;;;;;;;;;;20.22;58.40;101140.16;5035055;28;19971;-52
2023/10/14 10:36:55;;;;;;;;;;;;;;;20.26;58.48;101140.63;5036102;28;19917;-50
2023/10/14 10:39:20;;;;;;;;;;;;;;;20.31;58.26;101141.00;5037593;28;19971;-48
2023/10/14 10:41:53;;;;;;;;;;;;;;;20.35;58.04;101136.94;5033787;28;19924;-47
2023/10/14 10:44:19;;;;;;;;;;;;;;;20.38;58.01;101141.97;5037020;28;19920;-46
2023/10/14 10:46:53;;;;;;;;;;;;;;;20.43;58.03;101144.13;5037832;28;19913;-46
2023/10/14 10:49:38;;;;;;;;;;;;;;;20.46;58.14;101144.63;5038283;28;19988;-49
2023/10/14 10:52:13;;;;;;;;;;;;;;;20.49;57.94;101146.19;5034865;28;19913;-47
2023/10/14 10:54:39;;;;;;;;;;;;;;;20.58;57.69;101155.13;5040329;28;19924;-49
2023/10/14 10:57:04;;;;;;;;;;;;;;;20.64;57.64;101163.34;5040199;28;19913;-49
2023/10/14 10:59:29;;;;;;;;;;;;;;;20.62;57.72;101145.66;5039388;28;19944;-46
2023/10/14 11:01:54;;;;;;;;;;;;;;;20.78;57.22;101180.72;5066965;28;19909;-47
2023/10/14 11:04:19;;;;;;;;;;;;;;;20.83;57.17;101185.59;5040006;28;19913;-48
2023/10/14 11:06:45;;;;;;;;;;;;;;;20.86;57.00;101180.69;5033587;28;19939;-47
2023/10/14 11:09:12;;;;;;;;;;;;;;;20.91;56.86;101182.88;5037712;28;19913;-45
2023/10/14 11:11:38;;;;;;;;;;;;;;;20.96;56.76;101177.78;5037345;28;19926;-50
2023/10/14 11:14:14;;;;;;;;;;;;;;;21.03;56.28;101184.19;5036915;28;19952;-51
2023/10/14 11:16:39;;;;;;;;;;;;;;;21.07;56.38;101180.09;5037172;28;19935;-50
2023/10/14 11:19:07;;;;;;;;;;;;;;;21.13;56.15;101175.84;5037515;28;20012;-48
2023/10/14 11:21:32;;;;;;;;;;;;;;;21.18;56.30;101176.16;5036242;28;19929;-50
2023/10/14 11:23:57;;;;;;;;;;;;;;;21.21;56.26;101173.09;5039006;28;20363;-53
2023/10/14 11:26:23;;;;;;;;;;;;;;;21.26;56.29;101178.81;5066179;28;19976;-51
2023/10/14 11:28:48;;;;;;;;;;;;;;;21.30;56.02;101180.13;5069157;28;19909;-49
2023/10/14 11:31:14;;;;;;;;;;;;;;;21.35;56.06;101182.34;5039025;28;19952;-52
2023/10/14 11:33:39;;;;;;;;;;;;;;;21.38;55.91;101190.94;5036186;28;19913;-48
2023/10/14 11:36:05;;;;;;;;;;;;;;;21.41;55.78;101189.75;5036046;28;19913;-48
2023/10/14 11:38:30;;;;;;;;;;;;;;;21.44;55.85;101184.81;5037013;28;19913;-48
2023/10/14 11:40:58;;;;;;;;;;;;;;;21.46;55.32;101184.66;5035018;28;19921;-48
2023/10/14 11:43:23;;;;;;;;;;;;;;;21.48;55.57;101192.56;5037263;28;19923;-49
2023/10/14 11:45:48;;;;;;;;;;;;;;;21.50;55.57;101202.22;5037949;28;19988;-46
2023/10/14 11:48:22;;;;;;;;;;;;;;;21.52;55.58;101199.31;5040267;28;19931;-47
2023/10/14 11:50:47;;;;;;;;;;;;;;;21.55;55.39;101196.25;5040954;28;19916;-46
2023/10/14 11:53:13;;;;;;;;;;;;;;;21.57;55.07;101202.31;5037672;28;20431;-48
2023/10/14 11:55:38;;;;;;;;;;;;;;;21.60;55.10;101207.38;5041323;28;19917;-49
2023/10/14 11:58:04;;;;;;;;;;;;;;;21.60;55.15;101200.09;5039069;28;19915;-48
2023/10/14 12:00:30;;;;;;;;;;;;;;;21.61;54.98;101196.38;5039556;28;19923;-48
2023/10/14 12:02:56;;;;;;;;;;;;;;;21.61;55.11;101188.25;5041617;28;19956;-46
2023/10/14 12:05:21;;;;;;;;;;;;;;;21.61;55.08;101193.66;5039294;28;19920;-50
2023/10/14 12:07:51;;;;;;;;;;;;;;;21.62;54.81;101194.50;5035954;28;19923;-52
2023/10/14 12:10:17;;;;;;;;;;;;;;;21.61;54.85;101184.69;5040800;28;19959;-54
2023/10/14 12:12:42;;;;;;;;;;;;;;;21.60;55.00;101186.56;5036288;28;19921;-54
2023/10/14 12:15:08;;;;;;;;;;;;;;;21.60;54.80;101201.97;5037313;28;19913;-49
2023/10/14 12:17:36;;;;;;;;;;;;;;;21.59;54.91;101197.59;5040763;28;19917;-54
2023/10/14 12:20:05;;;;;;;;;;;;;;;21.59;54.96;101209.25;5037516;28;19913;-51
2023/10/14 12:22:31;;;;;;;;;;;;;;;21.58;54.65;101204.88;5038783;28;19909;-49
2023/10/14 12:24:57;;;;;;;;;;;;;;;21.58;54.97;101201.28;5037573;28;20090;-50
2023/10/14 12:27:25;;;;;;;;;;;;;;;21.57;54.81;101213.97;5036877;28;19975;-54
2023/10/14 12:29:50;;;;;;;;;;;;;;;21.58;54.75;101214.81;5036476;28;20163;-47
2023/10/14 12:32:17;;;;;;;;;;;;;;;21.57;54.70;101219.38;5037171;28;19920;-52
2023/10/14 12:34:43;;;;;;;;;;;;;;;21.57;54.78;101230.22;5037929;28;19913;-51
2023/10/14 12:37:18;;;;;;;;;;;;;;;21.57;54.61;101221.25;5037487;28;19920;-52
2023/10/14 12:39:44;;;;;;;;;;;;;;;21.56;54.68;101239.34;5039593;28;19984;-46
2023/10/14 12:42:09;;;;;;;;;;;;;;;21.57;54.38;101234.78;5032513;28;19913;-50
2023/10/14 12:44:35;;;;;;;;;;;;;;;21.56;54.77;101243.94;5037058;28;19916;-58
2023/10/14 12:47:10;;;;;;;;;;;;;;;21.55;54.65;101247.66;5037001;28;19917;-44
2023/10/14 12:49:37;;;;;;;;;;;;;;;21.57;54.72;101248.31;5037095;28;19920;-46
2023/10/14 12:52:05;;;;;;;;;;;;;;;21.56;54.27;101250.19;5036987;28;19909;-46
2023/10/14 12:54:34;;;;;;;;;;;;;;;21.56;54.50;101262.88;5041032;28;19913;-47
2023/10/14 12:57:00;;;;;;;;;;;;;;;21.57;54.50;101280.78;5038050;28;19909;-45
2023/10/14 12:59:25;;;;;;;;;;;;;;;21.57;54.73;101289.75;5036313;28;19914;-46
2023/10/14 13:01:58;;;;;;;;;;;;;;;21.58;54.52;101285.16;5038120;28;19913;-45